Time;durP1;ratioP1;P1;durP2;ratioP2;P2;SDS_P1;SDS_P2;PMS_P1;PMS_P2;Temp;Humidity;BMP_temperature;BMP_pressure;BME280_temperature;BME280_humidity;BME280_pressure;Samples;Min_cycle;Max_cycle;Signal;HPM_P1;HPM_P2
2024/03/30 00:00:10;;;;;;;0.70;0.43;;;11.00;99.90;;;;;;5124578;27;20729;-63
2024/03/30 00:02:38;;;;;;;2.27;0.60;;;11.00;99.90;;;;;;5128012;27;20451;-62
2024/03/30 00:05:04;;;;;;;1.00;0.60;;;11.10;99.90;;;;;;5129500;27;20454;-62
2024/03/30 00:07:33;;;;;;;1.77;0.83;;;11.10;99.90;;;;;;5127824;27;20436;-62
2024/03/30 00:10:01;;;;;;;0.53;0.40;;;11.10;99.90;;;;;;5130588;27;20485;-62
2024/03/30 00:12:28;;;;;;;1.87;0.40;;;11.10;99.90;;;;;;5131653;27;20848;-62
2024/03/30 00:14:54;;;;;;;0.50;0.30;;;11.00;99.90;;;;;;5128177;27;20436;-63
2024/03/30 00:17:21;;;;;;;1.70;0.50;;;11.00;99.90;;;;;;5117115;27;20453;-64
2024/03/30 00:19:47;;;;;;;1.53;0.40;;;11.00;99.90;;;;;;5124753;27;20866;-63
2024/03/30 00:22:14;;;;;;;0.70;0.40;;;11.00;99.90;;;;;;5138487;27;20458;-63
2024/03/30 00:24:40;;;;;;;4.70;0.73;;;10.90;99.90;;;;;;5133249;27;20448;-63
2024/03/30 00:27:09;;;;;;;1.57;0.50;;;10.90;99.90;;;;;;5131076;27;20835;-62
2024/03/30 00:29:35;;;;;;;2.00;0.47;;;10.90;99.90;;;;;;5124169;27;20502;-62
2024/03/30 00:32:03;;;;;;;2.07;0.60;;;10.90;99.90;;;;;;5125001;27;20440;-62
2024/03/30 00:34:30;;;;;;;0.67;0.40;;;10.80;99.90;;;;;;5124648;27;20857;-62
2024/03/30 00:36:57;;;;;;;2.57;0.40;;;10.90;99.90;;;;;;5121413;27;20724;-62
2024/03/30 00:39:23;;;;;;;2.47;0.40;;;10.90;99.90;;;;;;5125713;27;20490;-62
2024/03/30 00:41:51;;;;;;;2.10;0.43;;;10.90;99.90;;;;;;5124938;27;20440;-63
2024/03/30 00:44:18;;;;;;;2.03;0.60;;;10.90;99.90;;;;;;5120720;27;20823;-62
2024/03/30 00:46:46;;;;;;;1.67;0.40;;;10.90;99.90;;;;;;5125770;27;20508;-62
2024/03/30 00:49:12;;;;;;;2.63;0.63;;;10.90;99.90;;;;;;5122652;27;20489;-63
2024/03/30 00:51:40;;;;;;;3.03;0.50;;;10.90;99.90;;;;;;5121562;27;20752;-62
2024/03/30 00:54:06;;;;;;;1.80;0.33;;;10.90;99.90;;;;;;5124134;27;20484;-62
2024/03/30 00:56:33;;;;;;;4.40;0.50;;;11.00;99.90;;;;;;5123843;27;20923;-62
2024/03/30 00:59:01;;;;;;;2.93;0.40;;;10.90;99.90;;;;;;5122721;27;20480;-61
2024/03/30 01:01:31;;;;;;;2.47;0.53;;;10.90;99.90;;;;;;5121351;27;20441;-61
2024/03/30 01:03:58;;;;;;;3.80;0.37;;;11.00;99.90;;;;;;5118197;27;20433;-62
2024/03/30 01:06:25;;;;;;;16.93;0.70;;;11.00;99.90;;;;;;5122443;27;20443;-62
2024/03/30 01:08:51;;;;;;;3.47;0.50;;;10.90;99.90;;;;;;5132117;27;20436;-62
2024/03/30 01:11:19;;;;;;;3.67;0.47;;;10.90;99.90;;;;;;5124288;27;20448;-62
2024/03/30 01:13:45;;;;;;;3.70;0.50;;;10.90;99.90;;;;;;5131257;27;20900;-62
2024/03/30 01:16:13;;;;;;;2.90;0.60;;;10.90;99.90;;;;;;5129630;27;20436;-62
2024/03/30 01:18:42;;;;;;;2.63;0.60;;;10.90;99.90;;;;;;5126428;27;20472;-62
2024/03/30 01:21:09;;;;;;;0.90;0.50;;;10.90;99.90;;;;;;5125421;27;20536;-62
2024/03/30 01:23:37;;;;;;;4.07;0.90;;;10.90;99.90;;;;;;5123295;27;20494;-62
2024/03/30 01:26:09;;;;;;;5.00;0.53;;;10.90;99.90;;;;;;5125299;27;20926;-62
2024/03/30 01:28:36;;;;;;;0.80;0.50;;;10.80;99.90;;;;;;5124719;27;20727;-62
2024/03/30 01:31:03;;;;;;;2.57;0.40;;;10.90;99.90;;;;;;5126842;27;20527;-62
2024/03/30 01:33:31;;;;;;;3.37;0.60;;;10.80;99.90;;;;;;5125245;27;20622;-62
2024/03/30 01:35:59;;;;;;;1.57;0.40;;;10.80;99.90;;;;;;5126305;27;20445;-62
2024/03/30 01:38:26;;;;;;;2.00;0.40;;;10.80;99.90;;;;;;5125522;27;20484;-62
2024/03/30 01:40:53;;;;;;;0.97;0.50;;;10.90;99.90;;;;;;5125923;27;20444;-62
2024/03/30 01:43:19;;;;;;;0.70;0.50;;;10.90;99.90;;;;;;5127059;27;20501;-63
2024/03/30 01:45:46;;;;;;;5.23;0.60;;;10.80;99.90;;;;;;5122146;27;20428;-62
2024/03/30 01:48:13;;;;;;;1.47;0.40;;;10.80;99.90;;;;;;5126719;27;20690;-62
2024/03/30 01:50:42;;;;;;;2.30;0.60;;;10.80;99.90;;;;;;5127773;27;20487;-62
2024/03/30 01:53:13;;;;;;;2.30;0.77;;;10.80;99.90;;;;;;5125289;27;20441;-62
2024/03/30 01:55:41;;;;;;;2.73;0.70;;;10.80;99.90;;;;;;5123906;27;20452;-62
2024/03/30 01:58:10;;;;;;;0.83;0.50;;;10.70;99.90;;;;;;5123227;27;20464;-62
2024/03/30 02:00:37;;;;;;;1.17;0.47;;;10.70;99.90;;;;;;5121954;27;20850;-62
2024/03/30 02:03:04;;;;;;;2.33;0.60;;;10.70;99.90;;;;;;5121915;28;20524;-62
2024/03/30 02:05:33;;;;;;;9.33;0.57;;;10.70;99.90;;;;;;5127643;27;20504;-63
2024/03/30 02:08:03;;;;;;;0.60;0.40;;;10.60;99.90;;;;;;5122342;28;20447;-62
2024/03/30 02:10:31;;;;;;;1.13;0.60;;;10.60;99.90;;;;;;5119207;28;20486;-62
2024/03/30 02:12:58;;;;;;;3.80;0.60;;;10.60;99.90;;;;;;5113550;28;20838;-62
2024/03/30 02:15:31;;;;;;;1.33;0.50;;;10.60;99.90;;;;;;5115424;28;20456;-63
2024/03/30 02:17:57;;;;;;;2.47;0.60;;;10.50;99.90;;;;;;5113328;28;20507;-60
2024/03/30 02:20:24;;;;;;;4.07;0.63;;;10.60;99.90;;;;;;5115682;28;20541;-61
2024/03/30 02:22:51;;;;;;;6.93;0.60;;;10.50;99.90;;;;;;5116919;28;20453;-61
2024/03/30 02:25:21;;;;;;;5.17;0.53;;;10.50;99.90;;;;;;5117304;28;20476;-63
2024/03/30 02:27:47;;;;;;;1.77;0.40;;;10.50;99.90;;;;;;5116683;28;20441;-61
2024/03/30 02:30:22;;;;;;;2.70;0.60;;;10.60;99.90;;;;;;5118730;28;20448;-62
2024/03/30 02:32:49;;;;;;;1.43;0.37;;;10.50;99.90;;;;;;5121038;28;20455;-61
2024/03/30 02:35:16;;;;;;;2.47;0.70;;;10.60;99.90;;;;;;5120828;28;20455;-63
2024/03/30 02:37:42;;;;;;;0.80;0.40;;;10.60;99.90;;;;;;5120132;28;20854;-61
2024/03/30 02:40:10;;;;;;;2.30;0.47;;;10.60;99.90;;;;;;5120381;28;20523;-63
2024/03/30 02:42:37;;;;;;;6.10;0.40;;;10.70;99.90;;;;;;5120414;28;20480;-63
2024/03/30 02:45:06;;;;;;;3.00;0.47;;;10.70;99.90;;;;;;5102272;28;20457;-61
2024/03/30 02:47:32;;;;;;;3.83;0.60;;;10.80;99.90;;;;;;5100364;28;20444;-61
2024/03/30 02:49:59;;;;;;;2.30;0.50;;;10.80;99.90;;;;;;5117414;28;20506;-61
2024/03/30 02:52:25;;;;;;;9.67;0.63;;;10.80;99.90;;;;;;5101849;28;20438;-62
2024/03/30 02:54:52;;;;;;;2.80;0.70;;;10.80;99.90;;;;;;5099961;28;20838;-61
2024/03/30 02:57:18;;;;;;;0.67;0.37;;;10.80;99.90;;;;;;5116013;28;20494;-61
2024/03/30 02:59:46;;;;;;;4.80;0.43;;;10.80;99.90;;;;;;5118968;28;20480;-61
2024/03/30 03:02:12;;;;;;;3.33;0.60;;;10.90;99.90;;;;;;5120722;28;20444;-61
2024/03/30 03:04:39;;;;;;;5.07;0.70;;;10.90;99.90;;;;;;5119869;28;20509;-61
2024/03/30 03:07:06;;;;;;;5.73;0.60;;;10.90;99.90;;;;;;5120155;28;20930;-60
2024/03/30 03:09:34;;;;;;;4.77;0.50;;;10.90;99.90;;;;;;5128838;27;20468;-61
2024/03/30 03:12:00;;;;;;;4.97;0.63;;;10.90;99.90;;;;;;5141362;27;20780;-62
2024/03/30 03:14:27;;;;;;;5.30;1.17;;;11.00;99.90;;;;;;5140096;27;20478;-61
2024/03/30 03:16:54;;;;;;;3.63;0.50;;;11.00;99.90;;;;;;5140120;27;20520;-60
2024/03/30 03:19:21;;;;;;;4.33;0.50;;;11.00;99.90;;;;;;5140436;27;20455;-61
2024/03/30 03:21:47;;;;;;;6.13;0.60;;;11.10;99.90;;;;;;5140820;27;20508;-61
2024/03/30 03:24:15;;;;;;;11.07;1.10;;;11.00;99.90;;;;;;5140229;27;20451;-60
2024/03/30 03:26:41;;;;;;;3.13;0.47;;;11.00;99.90;;;;;;5139945;27;20451;-61
2024/03/30 03:29:08;;;;;;;9.17;0.80;;;11.00;99.90;;;;;;5140183;27;20479;-61
2024/03/30 03:31:33;;;;;;;9.73;0.53;;;11.00;99.90;;;;;;5138496;27;20451;-61
2024/03/30 03:34:02;;;;;;;7.10;0.70;;;11.00;99.90;;;;;;5139071;27;20909;-62
2024/03/30 03:36:28;;;;;;;4.93;0.50;;;11.10;99.90;;;;;;5139061;27;20546;-62
2024/03/30 03:38:55;;;;;;;8.80;1.07;;;11.10;99.90;;;;;;5139313;27;20831;-61
2024/03/30 03:41:21;;;;;;;13.50;0.60;;;11.20;99.90;;;;;;5138062;27;20444;-61
2024/03/30 03:43:48;;;;;;;2.77;0.60;;;11.20;99.90;;;;;;5139158;27;20462;-62
2024/03/30 03:46:14;;;;;;;1.77;0.70;;;11.20;99.90;;;;;;5139752;27;20479;-62
2024/03/30 03:48:41;;;;;;;5.70;0.60;;;11.20;99.90;;;;;;5132060;27;20463;-61
2024/03/30 03:51:09;;;;;;;2.40;0.60;;;11.20;99.90;;;;;;5133033;27;20451;-61
2024/03/30 03:53:36;;;;;;;3.57;0.53;;;11.20;99.90;;;;;;5139138;27;20717;-61
2024/03/30 03:56:02;;;;;;;4.13;0.63;;;11.30;99.90;;;;;;5135946;27;20448;-62
2024/03/30 03:58:29;;;;;;;6.73;0.50;;;11.30;99.90;;;;;;5123867;27;20533;-61
2024/03/30 04:00:55;;;;;;;3.23;0.40;;;11.30;99.90;;;;;;5128365;27;20432;-59
2024/03/30 04:03:22;;;;;;;12.00;0.60;;;11.40;99.90;;;;;;5127608;27;20539;-61
2024/03/30 04:05:48;;;;;;;8.70;0.60;;;11.40;99.90;;;;;;5127223;27;20436;-63
2024/03/30 04:08:17;;;;;;;5.87;0.67;;;11.40;99.90;;;;;;5127770;27;20525;-61
2024/03/30 04:10:43;;;;;;;4.87;0.47;;;11.50;99.90;;;;;;5118084;28;20530;-61
2024/03/30 04:13:10;;;;;;;5.10;0.50;;;11.50;99.90;;;;;;5117993;28;20468;-61
2024/03/30 04:15:36;;;;;;;14.70;0.60;;;11.40;99.90;;;;;;5118333;28;20452;-61
2024/03/30 04:18:04;;;;;;;3.70;0.50;;;11.40;99.90;;;;;;5118660;28;20452;-60
2024/03/30 04:20:30;;;;;;;4.50;0.60;;;11.40;99.90;;;;;;5117507;28;20510;-60
2024/03/30 04:22:56;;;;;;;15.17;1.87;;;11.40;99.90;;;;;;5119116;28;20738;-60
2024/03/30 04:25:24;;;;;;;7.20;0.40;;;11.30;99.90;;;;;;5111256;28;20434;-60
2024/03/30 04:27:51;;;;;;;8.07;0.50;;;11.30;99.90;;;;;;5097082;28;20446;-61
2024/03/30 04:30:18;;;;;;;8.37;0.57;;;11.20;99.90;;;;;;5099272;28;20453;-60
2024/03/30 04:32:45;;;;;;;8.37;0.53;;;11.30;99.90;;;;;;5098850;28;20952;-61
2024/03/30 04:35:11;;;;;;;2.30;0.40;;;11.30;99.90;;;;;;5098525;28;20514;-62
2024/03/30 04:37:38;;;;;;;4.80;1.20;;;11.20;99.90;;;;;;5096897;28;20457;-61
2024/03/30 04:40:06;;;;;;;1.57;0.70;;;11.30;99.90;;;;;;5096833;28;20796;-62
2024/03/30 04:42:35;;;;;;;2.23;0.50;;;11.30;99.90;;;;;;5097156;28;20441;-62
2024/03/30 04:45:01;;;;;;;6.70;0.40;;;11.30;99.90;;;;;;5097013;28;20480;-62
2024/03/30 04:47:28;;;;;;;3.13;1.43;;;11.30;99.90;;;;;;5110819;28;20453;-62
2024/03/30 04:49:54;;;;;;;3.70;0.30;;;11.40;99.90;;;;;;5117689;28;20539;-62
2024/03/30 04:52:21;;;;;;;10.83;0.60;;;11.30;99.90;;;;;;5117100;28;20901;-62
2024/03/30 04:54:47;;;;;;;4.40;0.30;;;11.30;99.90;;;;;;5117613;28;20858;-61
2024/03/30 04:57:14;;;;;;;4.80;0.53;;;11.30;99.90;;;;;;5118386;28;20854;-61
2024/03/30 04:59:43;;;;;;;3.00;0.40;;;11.30;99.90;;;;;;5118097;28;20583;-62
2024/03/30 05:02:09;;;;;;;4.13;0.60;;;11.40;99.90;;;;;;5117454;28;20449;-61
2024/03/30 05:04:36;;;;;;;3.10;0.40;;;11.40;99.90;;;;;;5118558;28;20460;-62
2024/03/30 05:07:02;;;;;;;8.47;0.57;;;11.40;99.90;;;;;;5101169;28;20438;-61
2024/03/30 05:09:29;;;;;;;10.40;0.70;;;11.40;99.90;;;;;;5105749;28;20534;-61
2024/03/30 05:11:55;;;;;;;8.43;0.60;;;11.40;99.90;;;;;;5118822;28;20460;-61
2024/03/30 05:14:22;;;;;;;1.63;0.40;;;11.40;99.90;;;;;;5117776;28;20708;-62
2024/03/30 05:16:49;;;;;;;3.00;0.47;;;11.30;99.90;;;;;;5117304;28;20457;-62
2024/03/30 05:21:57;;;;;;;3.43;0.47;;;11.30;99.90;;;;;;5096185;28;20425;-62
2024/03/30 05:24:24;;;;;;;10.00;0.70;;;11.30;99.90;;;;;;5097011;28;20457;-62
2024/03/30 05:26:50;;;;;;;1.77;0.40;;;11.30;99.90;;;;;;5112007;28;20501;-62
2024/03/30 05:29:17;;;;;;;12.03;0.50;;;11.40;99.90;;;;;;5117158;28;20453;-62
2024/03/30 05:31:43;;;;;;;0.80;0.40;;;11.50;99.90;;;;;;5117437;28;20866;-62
2024/03/30 05:34:12;;;;;;;3.07;0.40;;;11.50;99.90;;;;;;5117575;28;20505;-61
2024/03/30 05:36:38;;;;;;;4.33;0.40;;;11.60;99.90;;;;;;5117269;28;20535;-62
2024/03/30 05:39:05;;;;;;;3.10;0.40;;;11.60;99.90;;;;;;5117611;28;20977;-61
2024/03/30 05:41:31;;;;;;;0.70;0.40;;;11.70;99.90;;;;;;5116607;28;20479;-62
2024/03/30 05:43:58;;;;;;;1.33;0.30;;;11.80;99.90;;;;;;5117056;28;20851;-62
2024/03/30 05:46:25;;;;;;;3.20;0.53;;;11.80;99.90;;;;;;5116586;28;20437;-61
2024/03/30 05:48:52;;;;;;;7.60;0.43;;;11.90;99.90;;;;;;5117463;28;20886;-62
2024/03/30 05:51:19;;;;;;;2.70;0.30;;;12.00;99.90;;;;;;5115389;28;20444;-61
2024/03/30 05:53:46;;;;;;;0.80;0.30;;;12.00;99.90;;;;;;5117453;28;20467;-62
2024/03/30 05:56:13;;;;;;;1.80;0.30;;;12.00;99.90;;;;;;5116455;28;20549;-62
2024/03/30 05:58:41;;;;;;;0.53;0.20;;;12.10;99.90;;;;;;5116761;28;20849;-62
2024/03/30 06:01:07;;;;;;;3.47;0.70;;;12.20;99.90;;;;;;5114715;28;20447;-62
2024/03/30 06:03:33;;;;;;;1.43;0.30;;;12.30;99.90;;;;;;5116876;28;20717;-62
2024/03/30 06:05:59;;;;;;;4.90;0.53;;;12.40;99.90;;;;;;5114016;28;20452;-61
2024/03/30 06:08:28;;;;;;;2.50;0.33;;;12.50;99.90;;;;;;5115047;28;20444;-61
2024/03/30 06:10:54;;;;;;;1.33;0.40;;;12.50;99.90;;;;;;5134405;28;20463;-62
2024/03/30 06:13:21;;;;;;;3.10;0.47;;;12.60;99.90;;;;;;5136023;28;20504;-62
2024/03/30 06:15:47;;;;;;;5.77;0.60;;;12.80;99.90;;;;;;5135611;28;20439;-62
2024/03/30 06:18:14;;;;;;;2.50;0.60;;;12.90;99.90;;;;;;5135794;28;20469;-62
2024/03/30 06:20:40;;;;;;;5.07;0.50;;;13.20;99.90;;;;;;5135323;28;20495;-61
2024/03/30 06:23:07;;;;;;;5.60;0.63;;;13.50;99.90;;;;;;5135996;28;20714;-62
2024/03/30 06:25:34;;;;;;;5.90;0.40;;;13.70;99.90;;;;;;5135141;28;20480;-62
2024/03/30 06:28:01;;;;;;;9.23;0.70;;;13.90;99.90;;;;;;5118136;28;20758;-62
2024/03/30 06:30:27;;;;;;;12.67;0.57;;;14.00;99.90;;;;;;5116086;28;20462;-62
2024/03/30 06:32:54;;;;;;;3.77;0.40;;;14.00;99.90;;;;;;5130558;28;20558;-58
2024/03/30 06:35:20;;;;;;;3.83;0.40;;;14.10;99.90;;;;;;5127572;28;20506;-60
2024/03/30 06:37:47;;;;;;;3.20;0.50;;;14.20;99.90;;;;;;5115534;28;20448;-59
2024/03/30 06:45:43;;;;;;;4.20;0.40;;;14.40;99.90;;;;;;5128270;28;20868;-60
2024/03/30 06:48:10;;;;;;;4.27;0.67;;;14.40;99.90;;;;;;5115294;28;20886;-59
2024/03/30 06:50:37;;;;;;;4.80;0.47;;;14.40;99.90;;;;;;5123152;28;20445;-60
2024/03/30 06:53:05;;;;;;;3.20;0.70;;;14.40;99.90;;;;;;5115261;28;20451;-58
2024/03/30 06:55:31;;;;;;;2.20;0.70;;;14.50;99.90;;;;;;5115062;28;20726;-59
2024/03/30 06:57:59;;;;;;;2.27;0.60;;;14.40;99.90;;;;;;5115929;28;20531;-59
2024/03/30 07:00:25;;;;;;;4.20;0.70;;;14.40;99.90;;;;;;5120051;28;20751;-59
2024/03/30 07:02:52;;;;;;;10.80;0.77;;;14.40;99.90;;;;;;5125178;28;20513;-59
2024/03/30 07:05:18;;;;;;;1.90;0.47;;;14.30;99.90;;;;;;5132596;28;20516;-59
2024/03/30 07:07:45;;;;;;;1.87;0.50;;;14.40;99.90;;;;;;5135769;28;20459;-59
2024/03/30 07:10:11;;;;;;;1.97;0.43;;;14.40;99.90;;;;;;5135545;28;20467;-58
2024/03/30 07:12:38;;;;;;;3.53;0.50;;;14.40;99.90;;;;;;5137576;28;20906;-60
2024/03/30 07:15:06;;;;;;;3.30;0.60;;;14.40;99.90;;;;;;5136794;27;20876;-60
2024/03/30 07:17:33;;;;;;;1.70;0.50;;;14.40;99.90;;;;;;5139323;27;20466;-61
2024/03/30 07:19:59;;;;;;;3.23;0.47;;;14.30;99.90;;;;;;5140811;27;20560;-60
2024/03/30 07:22:26;;;;;;;7.47;0.50;;;14.30;99.90;;;;;;5140706;27;20829;-60
2024/03/30 07:24:52;;;;;;;3.00;0.47;;;14.40;99.90;;;;;;5140107;27;20444;-60
2024/03/30 07:27:19;;;;;;;3.90;0.47;;;14.40;99.90;;;;;;5139074;27;20444;-60
2024/03/30 07:29:50;;;;;;;4.77;0.70;;;14.40;99.90;;;;;;5138599;27;20456;-60
2024/03/30 07:32:18;;;;;;;2.30;0.50;;;14.50;99.90;;;;;;5137694;27;20447;-60
2024/03/30 07:34:46;;;;;;;2.27;0.50;;;14.60;99.90;;;;;;5137072;27;20451;-62
2024/03/30 07:37:13;;;;;;;4.97;0.80;;;14.80;99.90;;;;;;5137741;27;20492;-61
2024/03/30 07:39:40;;;;;;;4.97;0.60;;;14.90;99.90;;;;;;5138257;27;20508;-62
2024/03/30 07:42:08;;;;;;;5.30;0.60;;;15.00;99.90;;;;;;5139895;27;20850;-61
2024/03/30 07:44:34;;;;;;;3.27;0.50;;;14.90;99.90;;;;;;5139488;27;20446;-63
2024/03/30 07:47:01;;;;;;;3.20;0.50;;;14.90;99.90;;;;;;5137315;27;20508;-61
2024/03/30 07:49:29;;;;;;;2.10;0.50;;;14.80;99.90;;;;;;5139244;27;20564;-61
2024/03/30 07:51:56;;;;;;;2.90;0.50;;;14.80;99.90;;;;;;5137828;27;20444;-61
2024/03/30 07:54:22;;;;;;;2.83;0.50;;;14.80;99.90;;;;;;5137831;27;20542;-61
2024/03/30 07:56:55;;;;;;;8.60;0.80;;;14.70;99.90;;;;;;5138743;27;20503;-61
2024/03/30 07:59:22;;;;;;;5.63;0.60;;;14.80;99.90;;;;;;5139038;27;20484;-61
2024/03/30 08:01:50;;;;;;;4.40;0.50;;;14.80;99.90;;;;;;5139118;27;20460;-62
2024/03/30 08:04:16;;;;;;;10.43;0.80;;;14.80;99.90;;;;;;5138613;27;20439;-61
2024/03/30 08:06:45;;;;;;;4.47;0.60;;;14.80;99.90;;;;;;5136591;27;20922;-62
2024/03/30 08:09:11;;;;;;;6.60;0.60;;;14.80;99.90;;;;;;5135023;27;20517;-62
2024/03/30 08:11:39;;;;;;;5.73;0.57;;;14.70;99.90;;;;;;5136977;27;20458;-61
2024/03/30 08:14:05;;;;;;;1.20;0.50;;;14.80;99.90;;;;;;5137319;27;20794;-62
2024/03/30 08:16:33;;;;;;;4.00;0.60;;;14.80;99.90;;;;;;5135908;27;20850;-61
2024/03/30 08:19:02;;;;;;;3.33;0.70;;;14.90;99.90;;;;;;5132956;27;20443;-61
2024/03/30 08:21:29;;;;;;;2.63;0.53;;;14.80;99.90;;;;;;5139023;27;20462;-62
2024/03/30 08:23:56;;;;;;;4.83;0.63;;;14.80;99.90;;;;;;5138935;27;20443;-62
2024/03/30 08:26:23;;;;;;;5.68;0.60;;;14.80;99.90;;;;;;5137370;27;20453;-62
2024/03/30 08:28:49;;;;;;;6.20;0.70;;;14.80;99.90;;;;;;5138108;27;20596;-62
2024/03/30 08:31:17;;;;;;;7.23;0.63;;;14.80;99.90;;;;;;5137861;27;20465;-62
2024/03/30 08:33:43;;;;;;;8.30;0.90;;;14.80;99.90;;;;;;5137596;27;20450;-62
2024/03/30 08:36:10;;;;;;;8.93;0.53;;;14.90;99.90;;;;;;5131745;27;20534;-62
2024/03/30 08:38:36;;;;;;;3.70;0.50;;;14.90;99.90;;;;;;5136681;27;20452;-62
2024/03/30 08:41:05;;;;;;;6.53;0.60;;;14.90;99.90;;;;;;5136962;27;20480;-63
2024/03/30 08:43:31;;;;;;;5.87;0.70;;;15.00;99.90;;;;;;5126808;27;20451;-63
2024/03/30 08:46:02;;;;;;;4.47;0.70;;;15.00;99.90;;;;;;5136647;27;20914;-62
2024/03/30 08:48:28;;;;;;;3.53;0.60;;;15.00;99.90;;;;;;5117114;27;20463;-63
2024/03/30 08:50:55;;;;;;;10.97;1.33;;;15.00;99.90;;;;;;5120913;27;20449;-62
2024/03/30 08:53:21;;;;;;;3.23;0.80;;;15.00;99.90;;;;;;5125711;27;20702;-61
2024/03/30 08:55:48;;;;;;;4.60;0.63;;;14.90;99.90;;;;;;5132024;27;20504;-63
2024/03/30 08:58:15;;;;;;;1.80;0.50;;;14.90;99.90;;;;;;5125850;27;20443;-62
2024/03/30 09:00:42;;;;;;;8.73;0.87;;;14.90;99.90;;;;;;5130509;27;21033;-63
2024/03/30 09:03:08;;;;;;;1.73;0.63;;;14.80;99.90;;;;;;5127272;27;20452;-63
2024/03/30 09:05:35;;;;;;;4.73;0.70;;;14.80;99.90;;;;;;5130512;27;20444;-63
2024/03/30 09:08:01;;;;;;;3.67;0.90;;;14.70;99.90;;;;;;5121304;27;20456;-63
2024/03/30 09:10:28;;;;;;;6.87;1.30;;;14.80;99.90;;;;;;5119902;27;20897;-63
2024/03/30 09:12:54;;;;;;;3.60;0.90;;;14.80;99.90;;;;;;5119005;27;20529;-64
2024/03/30 09:15:23;;;;;;;3.23;0.70;;;14.80;99.90;;;;;;5122756;27;20841;-63
2024/03/30 09:17:49;;;;;;;10.67;1.17;;;14.90;99.90;;;;;;5118867;27;20487;-64
2024/03/30 09:20:16;;;;;;;6.93;1.00;;;14.90;99.90;;;;;;5110974;27;20508;-62
2024/03/30 09:22:42;;;;;;;10.50;0.70;;;14.90;99.90;;;;;;5108007;27;20461;-63
2024/03/30 09:25:14;;;;;;;8.17;0.90;;;14.90;99.90;;;;;;5110873;27;20444;-63
2024/03/30 09:27:41;;;;;;;2.63;0.60;;;15.00;99.90;;;;;;5108010;27;20463;-62
2024/03/30 09:30:10;;;;;;;3.03;0.70;;;15.00;99.90;;;;;;5111764;27;20456;-62
2024/03/30 09:32:39;;;;;;;5.60;0.67;;;15.00;99.90;;;;;;5108658;27;20456;-63
2024/03/30 09:35:07;;;;;;;6.77;0.80;;;15.00;99.90;;;;;;5109538;27;20513;-62
2024/03/30 09:37:33;;;;;;;4.80;0.80;;;15.00;99.90;;;;;;5104205;27;20465;-62
2024/03/30 09:40:00;;;;;;;4.27;0.70;;;15.00;99.90;;;;;;5104802;27;20902;-64
2024/03/30 09:42:30;;;;;;;4.87;0.77;;;15.10;99.90;;;;;;5106677;27;20912;-62
2024/03/30 09:44:58;;;;;;;3.93;0.90;;;15.10;99.90;;;;;;5121310;27;20459;-62
2024/03/30 09:47:26;;;;;;;9.73;0.67;;;15.20;99.90;;;;;;5112737;27;20464;-62
2024/03/30 09:49:55;;;;;;;3.03;0.50;;;15.20;99.90;;;;;;5117604;27;20449;-64
2024/03/30 09:52:23;;;;;;;3.30;0.80;;;15.20;99.90;;;;;;5106670;27;20529;-63
2024/03/30 09:54:51;;;;;;;8.33;0.70;;;15.20;99.90;;;;;;5112159;27;20460;-63
2024/03/30 09:57:19;;;;;;;4.03;0.80;;;15.20;99.90;;;;;;5108990;27;20456;-63
2024/03/30 09:59:46;;;;;;;7.57;0.73;;;15.20;99.90;;;;;;5111481;27;20483;-61
2024/03/30 10:02:12;;;;;;;10.70;0.80;;;15.20;99.90;;;;;;5117647;27;20464;-62
2024/03/30 10:04:39;;;;;;;4.40;0.70;;;15.20;99.90;;;;;;5115251;27;20826;-61
2024/03/30 10:07:12;;;;;;;4.03;0.70;;;15.10;99.90;;;;;;5114880;27;20550;-62
2024/03/30 10:09:39;;;;;;;7.50;0.83;;;15.10;99.90;;;;;;5130115;27;20486;-62
2024/03/30 10:12:15;;;;;;;3.80;0.60;;;15.10;99.90;;;;;;5124956;28;20452;-61
2024/03/30 10:14:45;;;;;;;2.57;0.80;;;15.20;99.90;;;;;;5115487;28;20917;-62
2024/03/30 10:17:11;;;;;;;13.47;0.80;;;15.20;99.90;;;;;;5107228;28;20544;-62
2024/03/30 10:19:41;;;;;;;5.97;0.77;;;15.10;99.90;;;;;;5114178;28;20472;-62
2024/03/30 10:22:08;;;;;;;4.27;0.70;;;15.20;99.90;;;;;;5126806;28;20542;-62
2024/03/30 10:24:36;;;;;;;2.77;0.70;;;15.30;99.90;;;;;;5118081;28;20470;-63
2024/03/30 10:27:02;;;;;;;3.27;0.80;;;15.30;99.90;;;;;;5115809;28;20546;-63
2024/03/30 10:29:30;;;;;;;4.67;0.70;;;15.40;99.90;;;;;;5130688;28;20466;-63
2024/03/30 10:31:57;;;;;;;10.00;1.10;;;15.40;99.90;;;;;;5101820;28;20519;-62
2024/03/30 10:34:26;;;;;;;2.90;0.60;;;15.40;99.90;;;;;;5108752;28;20458;-63
2024/03/30 10:36:58;;;;;;;1.83;0.80;;;15.40;99.90;;;;;;5107894;27;20448;-62
2024/03/30 10:39:27;;;;;;;4.47;0.73;;;15.40;99.90;;;;;;5106944;28;20465;-63
2024/03/30 10:41:54;;;;;;;4.90;1.07;;;15.50;99.90;;;;;;5111508;28;20558;-62
2024/03/30 10:44:25;;;;;;;7.53;1.20;;;15.50;99.90;;;;;;5115204;28;21970;-62
2024/03/30 10:46:52;;;;;;;7.20;1.20;;;15.50;99.90;;;;;;5111435;28;20542;-62
2024/03/30 10:49:19;;;;;;;8.73;0.83;;;15.60;99.90;;;;;;5119526;28;20444;-63
2024/03/30 10:51:46;;;;;;;11.63;1.10;;;15.50;99.90;;;;;;5130684;27;20856;-62
2024/03/30 10:54:14;;;;;;;7.00;0.90;;;15.60;99.90;;;;;;5135382;27;20901;-63
2024/03/30 10:56:48;;;;;;;7.67;1.20;;;15.60;99.90;;;;;;5109810;27;20452;-62
2024/03/30 10:59:17;;;;;;;8.80;1.03;;;15.60;99.90;;;;;;5113339;27;20740;-63
2024/03/30 11:01:46;;;;;;;5.80;1.10;;;15.60;99.90;;;;;;5112552;27;20456;-63
2024/03/30 11:04:14;;;;;;;10.30;0.90;;;15.60;99.90;;;;;;5112636;27;20452;-63
2024/03/30 11:06:43;;;;;;;5.37;1.00;;;15.60;99.90;;;;;;5113876;27;21185;-63
2024/03/30 11:09:12;;;;;;;16.03;2.00;;;15.70;99.90;;;;;;5116042;27;20768;-64
2024/03/30 11:11:39;;;;;;;6.07;0.97;;;15.70;99.90;;;;;;5124566;27;20451;-63
2024/03/30 11:14:07;;;;;;;5.13;0.90;;;15.80;99.90;;;;;;5117855;27;20769;-63
2024/03/30 11:16:38;;;;;;;6.40;1.00;;;15.80;99.90;;;;;;5118147;27;20867;-64
2024/03/30 11:19:14;;;;;;;5.30;1.00;;;16.00;99.90;;;;;;5132396;27;20479;-63
2024/03/30 11:21:47;;;;;;;5.20;0.83;;;16.10;99.90;;;;;;5133021;27;20479;-63
2024/03/30 11:24:16;;;;;;;16.33;1.43;;;16.10;99.90;;;;;;5126091;27;20463;-62
2024/03/30 11:26:55;;;;;;;4.00;0.90;;;16.20;99.90;;;;;;5130585;27;20457;-64
2024/03/30 11:29:34;;;;;;;5.47;1.10;;;16.30;99.90;;;;;;5128966;27;20546;-62
2024/03/30 11:32:09;;;;;;;5.10;0.90;;;16.40;99.90;;;;;;5122536;27;20460;-62
2024/03/30 11:34:49;;;;;;;9.83;1.10;;;16.40;99.90;;;;;;5118737;27;20847;-62
2024/03/30 11:37:26;;;;;;;9.03;1.30;;;16.50;99.90;;;;;;5117374;27;20444;-62
2024/03/30 11:40:01;;;;;;;10.30;0.90;;;16.50;99.90;;;;;;5119957;27;20482;-62
2024/03/30 11:42:38;;;;;;;6.17;1.43;;;16.60;99.90;;;;;;5116231;27;20456;-61
2024/03/30 11:45:07;;;;;;;10.33;1.20;;;16.70;99.90;;;;;;5119864;27;20549;-61
2024/03/30 11:47:37;;;;;;;4.40;1.07;;;16.80;99.90;;;;;;5121628;27;20479;-62
2024/03/30 11:50:04;;;;;;;5.47;1.70;;;16.90;99.90;;;;;;5125216;27;21019;-62
2024/03/30 11:52:31;;;;;;;5.60;0.97;;;16.90;99.90;;;;;;5128692;27;20473;-62
2024/03/30 11:54:57;;;;;;;10.33;1.00;;;16.90;99.90;;;;;;5131572;27;20463;-62
2024/03/30 11:57:26;;;;;;;7.67;1.00;;;16.80;99.90;;;;;;5135093;27;20745;-62
2024/03/30 11:59:54;;;;;;;12.47;1.07;;;16.70;99.90;;;;;;5130274;27;20953;-63
2024/03/30 12:02:25;;;;;;;6.33;0.90;;;16.80;99.90;;;;;;5119931;27;20452;-62
2024/03/30 12:04:51;;;;;;;5.70;1.40;;;16.90;99.90;;;;;;5123603;27;20505;-63
2024/03/30 12:07:18;;;;;;;3.63;1.10;;;16.90;99.90;;;;;;5127718;27;20448;-63
2024/03/30 12:09:44;;;;;;;18.27;2.10;;;17.00;99.90;;;;;;5133818;27;21041;-62
2024/03/30 12:12:14;;;;;;;4.90;1.97;;;17.00;99.90;;;;;;5130182;27;20453;-64
2024/03/30 12:14:40;;;;;;;4.23;0.90;;;17.10;99.90;;;;;;5136840;27;20455;-62
2024/03/30 12:17:07;;;;;;;4.43;1.10;;;17.10;99.90;;;;;;5136848;27;20458;-61
2024/03/30 12:19:35;;;;;;;10.20;1.00;;;17.10;99.90;;;;;;5135616;27;20941;-62
2024/03/30 12:22:03;;;;;;;6.57;1.27;;;17.20;99.90;;;;;;5123637;27;20459;-62
2024/03/30 12:24:33;;;;;;;4.23;0.87;;;17.20;99.90;;;;;;5122491;27;20481;-62
2024/03/30 12:26:59;;;;;;;6.00;1.03;;;17.10;99.90;;;;;;5123853;27;20520;-62
2024/03/30 12:29:26;;;;;;;5.43;0.93;;;17.00;99.90;;;;;;5134329;27;20462;-62
2024/03/30 12:31:55;;;;;;;4.67;1.10;;;17.00;99.90;;;;;;5131918;27;20456;-62
2024/03/30 12:34:23;;;;;;;3.30;0.80;;;17.00;99.90;;;;;;5138420;27;20443;-63
2024/03/30 12:36:51;;;;;;;4.10;1.10;;;17.10;99.90;;;;;;5132603;27;20467;-62
2024/03/30 12:39:18;;;;;;;6.83;1.20;;;17.10;99.90;;;;;;5136542;27;20448;-63
2024/03/30 12:41:46;;;;;;;8.00;1.63;;;17.20;99.90;;;;;;5119116;27;21149;-62
2024/03/30 12:44:14;;;;;;;6.97;1.40;;;17.20;99.90;;;;;;5124665;27;20460;-62
2024/03/30 12:46:40;;;;;;;7.13;1.07;;;17.20;99.90;;;;;;5122081;27;20457;-61
2024/03/30 12:49:07;;;;;;;8.30;1.10;;;17.20;99.90;;;;;;5117751;27;20432;-61
2024/03/30 12:51:35;;;;;;;9.27;1.03;;;17.10;99.90;;;;;;5118876;27;20452;-61
2024/03/30 12:54:05;;;;;;;4.20;0.80;;;17.10;99.90;;;;;;5126254;27;20457;-62